Latest Weather Observations for Fort Denison

IDN60901

Issued at 9:41 am EDT Sunday 26 February 2017 (issued every 10 minutes, with the page automatically refreshed every 10 minutes)

About weather observations | Map of Sydney area stations | Latest observations for Sydney area | Other Formats
Station Details ID: 066022 Name: FORT DENISON Lat: -33.86 Lon: 151.23 Height: 5.0 m
Data from the previous 72 hours. | See also: Recent months for locations in New South Wales
Date/Time
EDT
Temp
°C
App
Temp
°C
Dew
Point
°C
Rel
Hum
%
Delta-T
°C
Wind Press
QNH
hPa
Press
MSL
hPa
Rain since
9am
mm
Dir  Spd
km/h
Gust
km/h
Spd
kts
Gust
kts
26/09:30am - - - - - SSE 20 33 11 18 - - -
26/09:00am - - - - - SSE 15 20 8 11 - - -
26/08:30am - - - - - SSE 15 22 8 12 - - -
26/08:00am - - - - - SSE 13 20 7 11 - - -
26/07:30am - - - - - SSE 19 28 10 15 - - -
26/07:00am - - - - - SSE 13 17 7 9 - - -
26/06:30am - - - - - S 7 15 4 8 - - -
26/06:00am - - - - - SW 4 7 2 4 - - -
26/05:30am - - - - - SE 15 22 8 12 - - -
26/05:00am - - - - - SE 17 24 9 13 - - -
26/04:30am - - - - - SE 19 30 10 16 - - -
26/04:00am - - - - - SE 20 28 11 15 - - -
26/03:30am - - - - - SE 19 30 10 16 - - -
26/03:00am - - - - - SE 20 32 11 17 - - -
26/02:30am - - - - - ESE 30 33 16 18 - - -
26/02:00am - - - - - ESE 24 33 13 18 - - -
26/01:30am - - - - - ESE 26 35 14 19 - - -
26/01:00am - - - - - WNW 13 20 7 11 - - -
26/12:30am - - - - - W 13 19 7 10 - - -
26/12:00am - - - - - W 13 15 7 8 - - -
 
Date/Time
EDT
Temp
°C
App
Temp
°C
Dew
Point
°C
Rel
Hum
%
Delta-T
°C
Wind Press
QNH
hPa
Press
MSL
hPa
Rain since
9am
mm
Dir  Spd
km/h
Gust
km/h
Spd
kts
Gust
kts
25/11:30pm - - - - - WNW 11 15 6 8 - - -
25/11:00pm - - - - - WNW 9 13 5 7 - - -
25/10:30pm - - - - - SSW 13 24 7 13 - - -
25/10:00pm - - - - - SW 11 17 6 9 - - -
25/09:30pm - - - - - SW 6 11 3 6 - - -
25/09:00pm - - - - - WSW 7 13 4 7 - - -
25/08:30pm - - - - - SW 11 17 6 9 - - -
25/08:00pm - - - - - SSW 17 22 9 12 - - -
25/07:30pm - - - - - SSW 15 19 8 10 - - -
25/07:00pm - - - - - SSW 20 28 11 15 - - -
25/06:30pm - - - - - SSW 20 30 11 16 - - -
25/06:00pm - - - - - SSW 17 30 9 16 - - -
25/05:30pm - - - - - SSW 20 32 11 17 - - -
25/05:00pm - - - - - SSW 22 37 12 20 - - -
25/04:30pm - - - - - SSW 20 35 11 19 - - -
25/04:00pm - - - - - S 15 26 8 14 - - -
25/03:30pm - - - - - SSW 24 37 13 20 - - -
25/03:00pm - - - - - SSW 19 30 10 16 - - -
25/02:30pm - - - - - SSW 20 32 11 17 - - -
25/02:00pm - - - - - SSW 20 30 11 16 - - -
25/01:30pm - - - - - SSW 20 32 11 17 - - -
25/01:00pm - - - - - SSW 20 33 11 18 - - -
25/12:30pm - - - - - SSW 20 32 11 17 - - -
25/12:00pm - - - - - SSW 20 32 11 17 - - -
25/11:30am - - - - - SSW 19 33 10 18 - - -
25/11:00am - - - - - SSW 19 32 10 17 - - -
25/10:30am - - - - - SSW 22 33 12 18 - - -
25/10:00am - - - - - SSW 22 33 12 18 - - -
25/09:30am - - - - - SSW 22 32 12 17 - - -
25/09:00am - - - - - S 19 37 10 20 - - -
25/08:30am - - - - - S 20 33 11 18 - - -
25/08:00am - - - - - S 24 37 13 20 - - -
25/07:30am - - - - - S 20 33 11 18 - - -
25/07:00am - - - - - S 22 37 12 20 - - -
25/06:30am - - - - - SSW 26 39 14 21 - - -
25/06:00am - - - - - S 24 35 13 19 - - -
25/05:30am - - - - - SSW 26 37 14 20 - - -
25/05:00am - - - - - SSW 19 30 10 16 - - -
25/04:30am - - - - - SSE 13 28 7 15 - - -
25/04:00am - - - - - SSW 26 39 14 21 - - -
25/03:30am - - - - - SSW 26 39 14 21 - - -
25/03:00am - - - - - SSW 24 37 13 20 - - -
25/02:30am - - - - - SSW 24 39 13 21 - - -
25/02:00am - - - - - SSW 20 32 11 17 - - -
25/01:30am - - - - - SSW 13 19 7 10 - - -
25/01:00am - - - - - SSW 20 33 11 18 - - -
25/12:30am - - - - - SSW 15 24 8 13 - - -
25/12:00am - - - - - SE 13 28 7 15 - - -
 
Date/Time
EDT
Temp
°C
App
Temp
°C
Dew
Point
°C
Rel
Hum
%
Delta-T
°C
Wind Press
QNH
hPa
Press
MSL
hPa
Rain since
9am
mm
Dir  Spd
km/h
Gust
km/h
Spd
kts
Gust
kts
24/11:30pm - - - - - SSW 11 15 6 8 - - -
24/11:00pm - - - - - SSW 19 28 10 15 - - -
24/10:30pm - - - - - S 17 26 9 14 - - -
24/10:00pm - - - - - SSW 22 32 12 17 - - -
24/09:30pm - - - - - S 15 24 8 13 - - -
24/09:00pm - - - - - S 13 19 7 10 - - -
24/08:30pm - - - - - S 19 30 10 16 - - -
24/08:00pm - - - - - S 17 26 9 14 - - -
24/07:30pm - - - - - S 19 28 10 15 - - -
24/07:00pm - - - - - SSW 11 17 6 9 - - -
24/06:30pm - - - - - SSE 13 20 7 11 - - -
24/06:00pm - - - - - SE 15 22 8 12 - - -
24/05:30pm - - - - - ESE 15 19 8 10 - - -
24/05:00pm - - - - - E 13 17 7 9 - - -
24/04:30pm - - - - - E 6 9 3 5 - - -
24/04:00pm - - - - - ENE 6 9 3 5 - - -
24/03:30pm - - - - - E 9 13 5 7 - - -
24/03:00pm - - - - - ESE 15 20 8 11 - - -
24/02:30pm - - - - - ESE 13 19 7 10 - - -
24/02:00pm - - - - - E 13 15 7 8 - - -
24/01:30pm - - - - - ESE 11 15 6 8 - - -
24/01:00pm - - - - - E 13 17 7 9 - - -
24/12:30pm - - - - - E 7 11 4 6 - - -
24/12:00pm - - - - - S 6 9 3 5 - - -
24/11:30am - - - - - SSE 11 17 6 9 - - -
24/11:00am - - - - - SSE 11 15 6 8 - - -
24/10:30am - - - - - SSW 11 15 6 8 - - -
24/10:00am - - - - - S 6 7 3 4 - - -
24/09:30am - - - - - S 6 9 3 5 - - -
24/09:00am - - - - - SE 7 11 4 6 - - -
24/08:30am - - - - - SSE 6 11 3 6 - - -
24/08:00am - - - - - SE 7 11 4 6 - - -
24/07:30am - - - - - ESE 9 13 5 7 - - -
24/07:00am - - - - - ESE 11 15 6 8 - - -
24/06:30am - - - - - ESE 11 15 6 8 - - -
24/06:00am - - - - - E 7 11 4 6 - - -
24/05:30am - - - - - E 7 11 4 6 - - -
24/05:00am - - - - - E 6 7 3 4 - - -
24/04:30am - - - - - ENE 4 7 2 4 - - -
24/04:00am - - - - - ENE 7 11 4 6 - - -
24/03:30am - - - - - E 11 13 6 7 - - -
24/03:00am - - - - - NE 9 17 5 9 - - -
24/02:30am - - - - - NE 9 19 5 10 - - -
24/02:00am - - - - - NE 11 19 6 10 - - -
24/01:30am - - - - - NE 9 15 5 8 - - -
24/01:00am - - - - - NE 9 19 5 10 - - -
24/12:30am - - - - - NE 13 20 7 11 - - -
24/12:00am - - - - - NE 13 20 7 11 - - -
 
Date/Time
EDT
Temp
°C
App
Temp
°C
Dew
Point
°C
Rel
Hum
%
Delta-T
°C
Wind Press
QNH
hPa
Press
MSL
hPa
Rain since
9am
mm
Dir  Spd
km/h
Gust
km/h
Spd
kts
Gust
kts
23/11:30pm - - - - - ENE 13 24 7 13 - - -
23/11:00pm - - - - - NE 6 13 3 7 - - -
23/10:30pm - - - - - NNE 11 20 6 11 - - -
23/10:00pm - - - - - NNE 17 32 9 17 - - -
23/09:30pm - - - - - NE 22 35 12 19 - - -
23/09:00pm - - - - - NE 26 39 14 21 - - -
23/08:30pm - - - - - NE 26 39 14 21 - - -
23/08:00pm - - - - - NNE 28 44 15 24 - - -
23/07:30pm - - - - - NNE 24 46 13 25 - - -
23/07:00pm - - - - - NE 28 46 15 25 - - -
23/06:58pm - - - - - NE 28 46 15 25 - - -
23/06:30pm - - - - - NE 24 44 13 24 - - -
23/06:00pm - - - - - NE 26 44 14 24 - - -
23/05:30pm - - - - - NE 20 37 11 20 - - -
23/05:00pm - - - - - NE 24 39 13 21 - - -
23/04:30pm - - - - - ENE 26 39 14 21 - - -
23/04:00pm - - - - - ENE 24 33 13 18 - - -
23/03:30pm - - - - - NE 20 32 11 17 - - -
23/03:00pm - - - - - ENE 22 33 12 18 - - -
23/02:30pm - - - - - ENE 28 37 15 20 - - -
23/02:00pm - - - - - ENE 26 35 14 19 - - -
23/01:30pm - - - - - NE 20 30 11 16 - - -
23/01:00pm - - - - - NE 19 28 10 15 - - -
23/12:30pm - - - - - NE 20 30 11 16 - - -
23/12:00pm - - - - - ENE 20 26 11 14 - - -
23/11:30am - - - - - ENE 20 24 11 13 - - -
23/11:00am - - - - - E 20 22 11 12 - - -
23/10:30am - - - - - E 19 20 10 11 - - -
23/10:00am - - - - - NE 7 13 4 7 - - -

Latest Capital City Observations: Canberra | Sydney | Melbourne | Brisbane | Adelaide | Perth | Hobart | Darwin

Other Formats:

Comma delimited format used in spreadsheet applications
http://www.bom.gov.au/fwo/IDN60901/IDN60901.94769.axf

JavaScript Object Notation format (JSON) in row-major order
http://www.bom.gov.au/fwo/IDN60901/IDN60901.94769.json